sensor_id;sensor_type;location;lat;lon;timestamp;P1;durP1;ratioP1;P2;durP2;ratioP2
22814;SDS011;11574;51.058;13.712;2023-05-07T00:04:15;25.03;;;13.37;;
22814;SDS011;11574;51.058;13.712;2023-05-07T00:09:19;22.23;;;12.47;;
22814;SDS011;11574;51.058;13.712;2023-05-07T00:14:21;19.30;;;13.13;;
22814;SDS011;11574;51.058;13.712;2023-05-07T00:19:23;19.67;;;12.20;;
22814;SDS011;11574;51.058;13.712;2023-05-07T00:24:27;20.67;;;13.63;;
22814;SDS011;11574;51.058;13.712;2023-05-07T00:29:29;23.57;;;13.83;;
22814;SDS011;11574;51.058;13.712;2023-05-07T00:34:31;23.90;;;14.40;;
22814;SDS011;11574;51.058;13.712;2023-05-07T00:39:35;28.00;;;15.83;;
22814;SDS011;11574;51.058;13.712;2023-05-07T00:44:37;23.90;;;15.77;;
22814;SDS011;11574;51.058;13.712;2023-05-07T00:49:41;22.07;;;14.80;;
22814;SDS011;11574;51.058;13.712;2023-05-07T00:54:45;19.30;;;13.00;;
22814;SDS011;11574;51.058;13.712;2023-05-07T00:59:47;19.30;;;12.40;;
22814;SDS011;11574;51.058;13.712;2023-05-07T01:04:49;18.40;;;13.03;;
22814;SDS011;11574;51.058;13.712;2023-05-07T01:09:53;18.17;;;12.50;;
22814;SDS011;11574;51.058;13.712;2023-05-07T01:14:55;18.47;;;13.03;;
22814;SDS011;11574;51.058;13.712;2023-05-07T01:19:58;18.53;;;11.77;;
22814;SDS011;11574;51.058;13.712;2023-05-07T01:25:02;17.37;;;12.20;;
22814;SDS011;11574;51.058;13.712;2023-05-07T01:30:05;17.00;;;11.90;;
22814;SDS011;11574;51.058;13.712;2023-05-07T01:35:07;17.50;;;12.13;;
22814;SDS011;11574;51.058;13.712;2023-05-07T01:40:13;21.13;;;13.97;;
22814;SDS011;11574;51.058;13.712;2023-05-07T01:45:15;18.50;;;12.80;;
22814;SDS011;11574;51.058;13.712;2023-05-07T01:50:18;18.57;;;12.53;;
22814;SDS011;11574;51.058;13.712;2023-05-07T01:55:22;16.67;;;12.43;;
22814;SDS011;11574;51.058;13.712;2023-05-07T02:00:24;18.23;;;12.10;;
22814;SDS011;11574;51.058;13.712;2023-05-07T02:05:27;16.80;;;12.37;;
22814;SDS011;11574;51.058;13.712;2023-05-07T02:10:30;18.57;;;12.33;;
22814;SDS011;11574;51.058;13.712;2023-05-07T02:15:33;17.87;;;11.77;;
22814;SDS011;11574;51.058;13.712;2023-05-07T02:20:35;16.70;;;11.93;;
22814;SDS011;11574;51.058;13.712;2023-05-07T02:25:39;17.60;;;12.47;;
22814;SDS011;11574;51.058;13.712;2023-05-07T02:30:41;17.80;;;12.30;;
22814;SDS011;11574;51.058;13.712;2023-05-07T02:35:43;18.63;;;12.50;;
22814;SDS011;11574;51.058;13.712;2023-05-07T02:40:47;17.07;;;11.50;;
22814;SDS011;11574;51.058;13.712;2023-05-07T02:45:49;17.53;;;10.97;;
22814;SDS011;11574;51.058;13.712;2023-05-07T02:50:51;17.30;;;10.90;;
22814;SDS011;11574;51.058;13.712;2023-05-07T02:55:55;15.40;;;10.30;;
22814;SDS011;11574;51.058;13.712;2023-05-07T03:00:57;15.03;;;10.23;;
22814;SDS011;11574;51.058;13.712;2023-05-07T03:06:00;16.60;;;10.40;;
22814;SDS011;11574;51.058;13.712;2023-05-07T03:11:03;14.30;;;9.37;;
22814;SDS011;11574;51.058;13.712;2023-05-07T03:16:06;11.33;;;7.77;;
22814;SDS011;11574;51.058;13.712;2023-05-07T03:21:08;12.53;;;7.67;;
22814;SDS011;11574;51.058;13.712;2023-05-07T03:26:12;12.17;;;7.50;;
22814;SDS011;11574;51.058;13.712;2023-05-07T03:31:14;12.50;;;8.43;;
22814;SDS011;11574;51.058;13.712;2023-05-07T03:36:16;16.13;;;8.63;;
22814;SDS011;11574;51.058;13.712;2023-05-07T03:41:20;13.67;;;9.50;;
22814;SDS011;11574;51.058;13.712;2023-05-07T03:46:22;16.13;;;9.57;;
22814;SDS011;11574;51.058;13.712;2023-05-07T03:51:26;14.73;;;10.50;;
22814;SDS011;11574;51.058;13.712;2023-05-07T03:56:30;16.67;;;10.13;;
22814;SDS011;11574;51.058;13.712;2023-05-07T04:01:32;14.43;;;9.10;;
22814;SDS011;11574;51.058;13.712;2023-05-07T04:06:34;17.63;;;10.77;;
22814;SDS011;11574;51.058;13.712;2023-05-07T04:11:38;18.07;;;11.40;;
22814;SDS011;11574;51.058;13.712;2023-05-07T04:16:41;17.67;;;11.03;;
22814;SDS011;11574;51.058;13.712;2023-05-07T04:21:43;18.30;;;10.47;;
22814;SDS011;11574;51.058;13.712;2023-05-07T04:26:46;14.70;;;10.00;;
22814;SDS011;11574;51.058;13.712;2023-05-07T04:31:48;17.10;;;9.67;;
22814;SDS011;11574;51.058;13.712;2023-05-07T04:36:51;19.33;;;10.63;;
22814;SDS011;11574;51.058;13.712;2023-05-07T04:41:54;15.73;;;9.80;;
22814;SDS011;11574;51.058;13.712;2023-05-07T04:46:56;19.37;;;10.67;;
22814;SDS011;11574;51.058;13.712;2023-05-07T04:51:59;18.47;;;11.43;;
22814;SDS011;11574;51.058;13.712;2023-05-07T04:57:04;18.43;;;10.87;;
22814;SDS011;11574;51.058;13.712;2023-05-07T05:02:06;17.87;;;10.63;;
22814;SDS011;11574;51.058;13.712;2023-05-07T05:07:08;16.07;;;10.47;;
22814;SDS011;11574;51.058;13.712;2023-05-07T05:12:12;14.43;;;9.37;;
22814;SDS011;11574;51.058;13.712;2023-05-07T05:17:14;14.43;;;9.43;;
22814;SDS011;11574;51.058;13.712;2023-05-07T05:22:16;14.23;;;8.93;;
22814;SDS011;11574;51.058;13.712;2023-05-07T05:27:20;13.30;;;7.70;;
22814;SDS011;11574;51.058;13.712;2023-05-07T05:32:22;13.97;;;8.63;;
22814;SDS011;11574;51.058;13.712;2023-05-07T05:37:24;16.23;;;10.07;;
22814;SDS011;11574;51.058;13.712;2023-05-07T05:42:28;15.47;;;9.20;;
22814;SDS011;11574;51.058;13.712;2023-05-07T05:47:30;16.83;;;10.43;;
22814;SDS011;11574;51.058;13.712;2023-05-07T05:52:32;16.23;;;9.87;;
22814;SDS011;11574;51.058;13.712;2023-05-07T05:57:36;18.07;;;11.07;;
22814;SDS011;11574;51.058;13.712;2023-05-07T06:02:38;16.07;;;10.03;;
22814;SDS011;11574;51.058;13.712;2023-05-07T06:07:40;14.73;;;9.10;;
22814;SDS011;11574;51.058;13.712;2023-05-07T06:12:44;12.77;;;8.67;;
22814;SDS011;11574;51.058;13.712;2023-05-07T06:17:46;14.63;;;8.03;;
22814;SDS011;11574;51.058;13.712;2023-05-07T06:22:49;10.13;;;6.87;;
22814;SDS011;11574;51.058;13.712;2023-05-07T06:27:52;11.83;;;7.37;;
22814;SDS011;11574;51.058;13.712;2023-05-07T06:32:54;11.67;;;7.03;;
22814;SDS011;11574;51.058;13.712;2023-05-07T06:37:57;13.33;;;7.10;;
22814;SDS011;11574;51.058;13.712;2023-05-07T06:43:00;10.33;;;6.47;;
22814;SDS011;11574;51.058;13.712;2023-05-07T06:48:02;12.23;;;7.40;;
22814;SDS011;11574;51.058;13.712;2023-05-07T06:53:05;10.57;;;6.93;;
22814;SDS011;11574;51.058;13.712;2023-05-07T06:58:08;9.27;;;6.17;;
22814;SDS011;11574;51.058;13.712;2023-05-07T07:03:11;9.90;;;6.20;;
22814;SDS011;11574;51.058;13.712;2023-05-07T07:08:13;8.90;;;5.60;;
22814;SDS011;11574;51.058;13.712;2023-05-07T07:13:19;11.27;;;6.97;;
22814;SDS011;11574;51.058;13.712;2023-05-07T07:18:21;11.43;;;6.87;;
22814;SDS011;11574;51.058;13.712;2023-05-07T07:23:23;10.53;;;6.23;;
22814;SDS011;11574;51.058;13.712;2023-05-07T07:28:27;7.00;;;5.00;;
22814;SDS011;11574;51.058;13.712;2023-05-07T07:33:29;9.00;;;4.60;;
22814;SDS011;11574;51.058;13.712;2023-05-07T07:38:32;6.60;;;4.37;;
22814;SDS011;11574;51.058;13.712;2023-05-07T07:43:35;7.87;;;4.60;;
22814;SDS011;11574;51.058;13.712;2023-05-07T07:48:37;5.27;;;3.80;;
22814;SDS011;11574;51.058;13.712;2023-05-07T07:53:40;4.43;;;3.33;;
22814;SDS011;11574;51.058;13.712;2023-05-07T07:58:43;4.67;;;3.40;;
22814;SDS011;11574;51.058;13.712;2023-05-07T08:03:46;5.33;;;3.37;;
22814;SDS011;11574;51.058;13.712;2023-05-07T08:08:48;7.77;;;3.50;;
22814;SDS011;11574;51.058;13.712;2023-05-07T08:13:51;5.23;;;3.27;;
22814;SDS011;11574;51.058;13.712;2023-05-07T08:18:54;4.50;;;2.97;;
22814;SDS011;11574;51.058;13.712;2023-05-07T08:23:56;5.20;;;3.83;;
22814;SDS011;11574;51.058;13.712;2023-05-07T08:28:59;4.73;;;2.90;;
22814;SDS011;11574;51.058;13.712;2023-05-07T08:34:02;5.83;;;3.13;;
22814;SDS011;11574;51.058;13.712;2023-05-07T08:39:05;4.97;;;3.50;;
22814;SDS011;11574;51.058;13.712;2023-05-07T08:44:11;4.73;;;3.20;;
22814;SDS011;11574;51.058;13.712;2023-05-07T08:49:14;5.33;;;3.70;;
22814;SDS011;11574;51.058;13.712;2023-05-07T08:54:18;3.63;;;2.90;;
22814;SDS011;11574;51.058;13.712;2023-05-07T08:59:22;5.20;;;3.50;;
22814;SDS011;11574;51.058;13.712;2023-05-07T09:04:24;6.33;;;3.80;;
22814;SDS011;11574;51.058;13.712;2023-05-07T09:09:26;7.13;;;4.83;;
22814;SDS011;11574;51.058;13.712;2023-05-07T09:14:30;13.23;;;5.40;;
22814;SDS011;11574;51.058;13.712;2023-05-07T09:19:32;7.70;;;5.37;;
22814;SDS011;11574;51.058;13.712;2023-05-07T09:24:34;5.83;;;4.40;;
22814;SDS011;11574;51.058;13.712;2023-05-07T09:29:39;7.83;;;5.90;;
22814;SDS011;11574;51.058;13.712;2023-05-07T09:34:41;7.57;;;5.63;;
22814;SDS011;11574;51.058;13.712;2023-05-07T09:39:44;7.70;;;5.87;;
22814;SDS011;11574;51.058;13.712;2023-05-07T09:44:48;8.40;;;5.87;;
22814;SDS011;11574;51.058;13.712;2023-05-07T09:49:50;7.27;;;5.33;;
22814;SDS011;11574;51.058;13.712;2023-05-07T09:54:56;7.93;;;5.17;;
22814;SDS011;11574;51.058;13.712;2023-05-07T10:00:01;7.07;;;4.90;;
22814;SDS011;11574;51.058;13.712;2023-05-07T10:05:05;6.70;;;4.90;;
22814;SDS011;11574;51.058;13.712;2023-05-07T10:10:08;8.73;;;5.80;;
22814;SDS011;11574;51.058;13.712;2023-05-07T10:15:12;9.10;;;6.50;;
22814;SDS011;11574;51.058;13.712;2023-05-07T10:20:14;8.73;;;6.10;;
22814;SDS011;11574;51.058;13.712;2023-05-07T10:25:17;8.87;;;6.10;;
22814;SDS011;11574;51.058;13.712;2023-05-07T10:30:24;9.60;;;5.13;;
22814;SDS011;11574;51.058;13.712;2023-05-07T10:35:29;7.97;;;5.60;;
22814;SDS011;11574;51.058;13.712;2023-05-07T10:40:33;8.93;;;5.63;;
22814;SDS011;11574;51.058;13.712;2023-05-07T10:45:36;8.13;;;5.70;;
22814;SDS011;11574;51.058;13.712;2023-05-07T10:50:39;6.07;;;4.77;;
22814;SDS011;11574;51.058;13.712;2023-05-07T10:55:42;6.53;;;5.03;;
22814;SDS011;11574;51.058;13.712;2023-05-07T11:00:45;9.87;;;5.73;;
22814;SDS011;11574;51.058;13.712;2023-05-07T11:05:47;5.67;;;4.43;;
22814;SDS011;11574;51.058;13.712;2023-05-07T11:11:10;5.63;;;4.03;;
22814;SDS011;11574;51.058;13.712;2023-05-07T11:16:17;5.67;;;4.53;;
22814;SDS011;11574;51.058;13.712;2023-05-07T11:21:32;5.50;;;4.30;;
22814;SDS011;11574;51.058;13.712;2023-05-07T11:26:42;6.70;;;4.53;;
22814;SDS011;11574;51.058;13.712;2023-05-07T11:31:49;5.70;;;4.43;;
22814;SDS011;11574;51.058;13.712;2023-05-07T11:36:52;5.63;;;4.20;;
22814;SDS011;11574;51.058;13.712;2023-05-07T11:41:55;8.73;;;4.90;;
22814;SDS011;11574;51.058;13.712;2023-05-07T11:46:59;6.97;;;3.90;;
22814;SDS011;11574;51.058;13.712;2023-05-07T11:52:02;6.57;;;4.33;;
22814;SDS011;11574;51.058;13.712;2023-05-07T11:57:04;8.47;;;5.07;;
22814;SDS011;11574;51.058;13.712;2023-05-07T12:02:08;7.03;;;5.00;;
22814;SDS011;11574;51.058;13.712;2023-05-07T12:07:11;6.63;;;4.90;;
22814;SDS011;11574;51.058;13.712;2023-05-07T12:12:13;6.77;;;4.80;;
22814;SDS011;11574;51.058;13.712;2023-05-07T12:17:18;5.93;;;4.40;;
22814;SDS011;11574;51.058;13.712;2023-05-07T12:22:21;7.23;;;4.43;;
22814;SDS011;11574;51.058;13.712;2023-05-07T12:27:23;6.70;;;4.77;;
22814;SDS011;11574;51.058;13.712;2023-05-07T12:32:26;4.93;;;4.27;;
22814;SDS011;11574;51.058;13.712;2023-05-07T12:37:29;5.67;;;4.53;;
22814;SDS011;11574;51.058;13.712;2023-05-07T12:42:32;7.40;;;4.30;;
22814;SDS011;11574;51.058;13.712;2023-05-07T12:47:36;4.47;;;3.77;;
22814;SDS011;11574;51.058;13.712;2023-05-07T12:52:38;5.97;;;4.47;;
22814;SDS011;11574;51.058;13.712;2023-05-07T12:57:43;5.17;;;4.00;;
22814;SDS011;11574;51.058;13.712;2023-05-07T13:02:47;5.27;;;3.80;;
22814;SDS011;11574;51.058;13.712;2023-05-07T13:07:52;4.53;;;3.67;;
22814;SDS011;11574;51.058;13.712;2023-05-07T13:12:55;4.83;;;3.93;;
22814;SDS011;11574;51.058;13.712;2023-05-07T13:17:58;5.50;;;3.60;;
22814;SDS011;11574;51.058;13.712;2023-05-07T13:23:00;5.47;;;4.10;;
22814;SDS011;11574;51.058;13.712;2023-05-07T13:28:04;5.63;;;3.80;;
22814;SDS011;11574;51.058;13.712;2023-05-07T13:33:08;3.90;;;3.50;;
22814;SDS011;11574;51.058;13.712;2023-05-07T13:38:10;4.37;;;3.70;;
22814;SDS011;11574;51.058;13.712;2023-05-07T13:43:12;4.33;;;3.57;;
22814;SDS011;11574;51.058;13.712;2023-05-07T13:48:18;4.30;;;3.03;;
22814;SDS011;11574;51.058;13.712;2023-05-07T13:53:21;3.90;;;3.23;;
22814;SDS011;11574;51.058;13.712;2023-05-07T13:58:23;4.47;;;3.70;;
22814;SDS011;11574;51.058;13.712;2023-05-07T14:03:26;6.20;;;3.47;;
22814;SDS011;11574;51.058;13.712;2023-05-07T14:08:29;4.93;;;3.37;;
22814;SDS011;11574;51.058;13.712;2023-05-07T14:13:31;3.30;;;3.00;;
22814;SDS011;11574;51.058;13.712;2023-05-07T14:18:35;4.43;;;3.10;;
22814;SDS011;11574;51.058;13.712;2023-05-07T14:23:38;5.10;;;2.70;;
22814;SDS011;11574;51.058;13.712;2023-05-07T14:28:40;3.67;;;2.80;;
22814;SDS011;11574;51.058;13.712;2023-05-07T14:33:47;5.30;;;2.60;;
22814;SDS011;11574;51.058;13.712;2023-05-07T14:38:50;2.70;;;2.20;;
22814;SDS011;11574;51.058;13.712;2023-05-07T14:43:52;4.33;;;2.30;;
22814;SDS011;11574;51.058;13.712;2023-05-07T14:48:56;6.23;;;2.80;;
22814;SDS011;11574;51.058;13.712;2023-05-07T14:53:58;3.73;;;2.73;;
22814;SDS011;11574;51.058;13.712;2023-05-07T14:59:01;4.70;;;3.37;;
22814;SDS011;11574;51.058;13.712;2023-05-07T15:04:05;5.60;;;2.57;;
22814;SDS011;11574;51.058;13.712;2023-05-07T15:09:07;6.03;;;2.80;;
22814;SDS011;11574;51.058;13.712;2023-05-07T15:14:10;4.50;;;2.97;;
22814;SDS011;11574;51.058;13.712;2023-05-07T15:19:13;5.43;;;3.10;;
22814;SDS011;11574;51.058;13.712;2023-05-07T15:24:16;5.43;;;3.13;;
22814;SDS011;11574;51.058;13.712;2023-05-07T15:29:19;4.70;;;3.30;;
22814;SDS011;11574;51.058;13.712;2023-05-07T15:34:26;5.43;;;3.70;;
22814;SDS011;11574;51.058;13.712;2023-05-07T15:39:30;5.03;;;3.47;;
22814;SDS011;11574;51.058;13.712;2023-05-07T15:44:33;3.70;;;3.30;;
22814;SDS011;11574;51.058;13.712;2023-05-07T15:49:36;5.03;;;3.70;;
22814;SDS011;11574;51.058;13.712;2023-05-07T15:54:42;6.77;;;4.37;;
22814;SDS011;11574;51.058;13.712;2023-05-07T15:59:45;7.93;;;4.30;;
22814;SDS011;11574;51.058;13.712;2023-05-07T16:04:49;5.00;;;4.07;;
22814;SDS011;11574;51.058;13.712;2023-05-07T16:09:51;9.23;;;3.50;;
22814;SDS011;11574;51.058;13.712;2023-05-07T16:14:54;6.00;;;3.90;;
22814;SDS011;11574;51.058;13.712;2023-05-07T16:19:59;4.43;;;3.30;;
22814;SDS011;11574;51.058;13.712;2023-05-07T16:25:01;5.03;;;4.17;;
22814;SDS011;11574;51.058;13.712;2023-05-07T16:30:04;6.67;;;3.97;;
22814;SDS011;11574;51.058;13.712;2023-05-07T16:35:10;7.37;;;4.63;;
22814;SDS011;11574;51.058;13.712;2023-05-07T16:40:12;7.73;;;4.43;;
22814;SDS011;11574;51.058;13.712;2023-05-07T16:45:14;5.47;;;4.30;;
22814;SDS011;11574;51.058;13.712;2023-05-07T16:50:19;5.33;;;4.20;;
22814;SDS011;11574;51.058;13.712;2023-05-07T16:55:21;6.60;;;4.63;;
22814;SDS011;11574;51.058;13.712;2023-05-07T17:00:23;6.13;;;4.67;;
22814;SDS011;11574;51.058;13.712;2023-05-07T17:05:32;4.93;;;3.87;;
22814;SDS011;11574;51.058;13.712;2023-05-07T17:10:34;8.53;;;3.77;;
22814;SDS011;11574;51.058;13.712;2023-05-07T17:15:39;6.33;;;3.93;;
22814;SDS011;11574;51.058;13.712;2023-05-07T17:20:44;6.40;;;4.03;;
22814;SDS011;11574;51.058;13.712;2023-05-07T17:25:46;7.83;;;4.00;;
22814;SDS011;11574;51.058;13.712;2023-05-07T17:30:48;5.57;;;4.20;;
22814;SDS011;11574;51.058;13.712;2023-05-07T17:35:52;6.07;;;4.00;;
22814;SDS011;11574;51.058;13.712;2023-05-07T17:40:55;6.70;;;4.53;;
22814;SDS011;11574;51.058;13.712;2023-05-07T17:45:57;8.83;;;4.50;;
22814;SDS011;11574;51.058;13.712;2023-05-07T17:51:01;4.70;;;3.97;;
22814;SDS011;11574;51.058;13.712;2023-05-07T17:56:03;6.83;;;3.57;;
22814;SDS011;11574;51.058;13.712;2023-05-07T18:01:05;5.47;;;3.93;;
22814;SDS011;11574;51.058;13.712;2023-05-07T18:06:09;5.60;;;3.60;;
22814;SDS011;11574;51.058;13.712;2023-05-07T18:11:16;4.60;;;3.77;;
22814;SDS011;11574;51.058;13.712;2023-05-07T18:16:19;7.33;;;3.67;;
22814;SDS011;11574;51.058;13.712;2023-05-07T18:21:30;6.47;;;4.23;;
22814;SDS011;11574;51.058;13.712;2023-05-07T18:26:34;10.70;;;4.47;;
22814;SDS011;11574;51.058;13.712;2023-05-07T18:31:36;5.17;;;4.20;;
22814;SDS011;11574;51.058;13.712;2023-05-07T18:36:41;5.77;;;4.50;;
22814;SDS011;11574;51.058;13.712;2023-05-07T18:41:44;6.47;;;4.30;;
22814;SDS011;11574;51.058;13.712;2023-05-07T18:46:54;7.60;;;4.60;;
22814;SDS011;11574;51.058;13.712;2023-05-07T18:52:01;6.70;;;4.90;;
22814;SDS011;11574;51.058;13.712;2023-05-07T18:57:03;6.87;;;4.83;;
22814;SDS011;11574;51.058;13.712;2023-05-07T19:02:05;6.40;;;4.30;;
22814;SDS011;11574;51.058;13.712;2023-05-07T19:07:09;6.60;;;4.40;;
22814;SDS011;11574;51.058;13.712;2023-05-07T19:12:13;9.10;;;4.67;;
22814;SDS011;11574;51.058;13.712;2023-05-07T19:17:16;7.87;;;4.70;;
22814;SDS011;11574;51.058;13.712;2023-05-07T19:22:20;7.97;;;4.70;;
22814;SDS011;11574;51.058;13.712;2023-05-07T19:27:22;6.00;;;5.13;;
22814;SDS011;11574;51.058;13.712;2023-05-07T19:32:24;8.10;;;5.20;;
22814;SDS011;11574;51.058;13.712;2023-05-07T19:37:28;8.17;;;5.90;;
22814;SDS011;11574;51.058;13.712;2023-05-07T19:42:30;6.67;;;5.17;;
22814;SDS011;11574;51.058;13.712;2023-05-07T19:47:33;7.57;;;5.70;;
22814;SDS011;11574;51.058;13.712;2023-05-07T19:52:36;7.90;;;5.40;;
22814;SDS011;11574;51.058;13.712;2023-05-07T19:57:39;7.73;;;5.63;;
22814;SDS011;11574;51.058;13.712;2023-05-07T20:02:41;7.00;;;5.70;;
22814;SDS011;11574;51.058;13.712;2023-05-07T20:07:44;7.70;;;5.47;;
22814;SDS011;11574;51.058;13.712;2023-05-07T20:12:47;7.00;;;5.93;;
22814;SDS011;11574;51.058;13.712;2023-05-07T20:17:49;8.40;;;5.20;;
22814;SDS011;11574;51.058;13.712;2023-05-07T20:22:55;7.80;;;4.83;;
22814;SDS011;11574;51.058;13.712;2023-05-07T20:27:57;6.87;;;4.60;;
22814;SDS011;11574;51.058;13.712;2023-05-07T20:33:01;5.67;;;4.50;;
22814;SDS011;11574;51.058;13.712;2023-05-07T20:38:06;6.70;;;4.73;;
22814;SDS011;11574;51.058;13.712;2023-05-07T20:43:08;7.93;;;4.17;;
22814;SDS011;11574;51.058;13.712;2023-05-07T20:48:10;6.43;;;3.70;;
22814;SDS011;11574;51.058;13.712;2023-05-07T20:53:15;5.47;;;3.90;;
22814;SDS011;11574;51.058;13.712;2023-05-07T20:58:18;5.40;;;4.07;;
22814;SDS011;11574;51.058;13.712;2023-05-07T21:03:24;5.13;;;3.80;;
22814;SDS011;11574;51.058;13.712;2023-05-07T21:08:27;5.27;;;3.50;;
22814;SDS011;11574;51.058;13.712;2023-05-07T21:13:30;5.07;;;3.50;;
22814;SDS011;11574;51.058;13.712;2023-05-07T21:18:32;6.30;;;3.63;;
22814;SDS011;11574;51.058;13.712;2023-05-07T21:23:36;5.07;;;3.60;;
22814;SDS011;11574;51.058;13.712;2023-05-07T21:28:38;6.57;;;3.57;;
22814;SDS011;11574;51.058;13.712;2023-05-07T21:33:40;4.97;;;3.50;;
22814;SDS011;11574;51.058;13.712;2023-05-07T21:38:44;5.10;;;3.67;;
22814;SDS011;11574;51.058;13.712;2023-05-07T21:43:47;6.73;;;3.97;;
22814;SDS011;11574;51.058;13.712;2023-05-07T21:48:49;6.73;;;3.73;;
22814;SDS011;11574;51.058;13.712;2023-05-07T21:53:52;5.83;;;3.70;;
22814;SDS011;11574;51.058;13.712;2023-05-07T21:58:55;4.90;;;3.80;;
22814;SDS011;11574;51.058;13.712;2023-05-07T22:03:57;8.10;;;3.70;;
22814;SDS011;11574;51.058;13.712;2023-05-07T22:09:01;5.13;;;3.73;;
22814;SDS011;11574;51.058;13.712;2023-05-07T22:14:03;5.00;;;3.70;;
22814;SDS011;11574;51.058;13.712;2023-05-07T22:19:05;7.77;;;4.47;;
22814;SDS011;11574;51.058;13.712;2023-05-07T22:24:09;5.30;;;3.97;;
22814;SDS011;11574;51.058;13.712;2023-05-07T22:29:11;5.47;;;3.83;;
22814;SDS011;11574;51.058;13.712;2023-05-07T22:34:13;6.83;;;4.20;;
22814;SDS011;11574;51.058;13.712;2023-05-07T22:39:17;5.33;;;3.83;;
22814;SDS011;11574;51.058;13.712;2023-05-07T22:44:19;8.10;;;3.93;;
22814;SDS011;11574;51.058;13.712;2023-05-07T22:49:21;5.10;;;3.93;;
22814;SDS011;11574;51.058;13.712;2023-05-07T22:54:26;5.83;;;4.37;;
22814;SDS011;11574;51.058;13.712;2023-05-07T22:59:28;8.00;;;4.17;;
22814;SDS011;11574;51.058;13.712;2023-05-07T23:04:30;6.00;;;4.43;;
22814;SDS011;11574;51.058;13.712;2023-05-07T23:09:34;6.87;;;4.53;;
22814;SDS011;11574;51.058;13.712;2023-05-07T23:14:36;6.83;;;4.23;;
22814;SDS011;11574;51.058;13.712;2023-05-07T23:19:38;6.87;;;4.03;;
22814;SDS011;11574;51.058;13.712;2023-05-07T23:24:42;5.27;;;4.03;;
22814;SDS011;11574;51.058;13.712;2023-05-07T23:29:44;6.37;;;4.47;;
22814;SDS011;11574;51.058;13.712;2023-05-07T23:34:48;7.17;;;4.30;;
22814;SDS011;11574;51.058;13.712;2023-05-07T23:39:55;5.90;;;4.17;;
22814;SDS011;11574;51.058;13.712;2023-05-07T23:44:57;6.07;;;4.53;;
22814;SDS011;11574;51.058;13.712;2023-05-07T23:49:59;5.17;;;4.13;;
22814;SDS011;11574;51.058;13.712;2023-05-07T23:55:03;8.43;;;5.50;;
